sensor_id;sensor_type;location;lat;lon;timestamp;P1;durP1;ratioP1;P2;durP2;ratioP2
64375;SDS011;50700;55.416;12.952;2022-09-13T00:00:31;5.50;;;2.30;;
64375;SDS011;50700;55.416;12.952;2022-09-13T00:02:57;2.90;;;2.38;;
64375;SDS011;50700;55.416;12.952;2022-09-13T00:05:24;3.53;;;2.42;;
64375;SDS011;50700;55.416;12.952;2022-09-13T00:07:51;2.45;;;2.20;;
64375;SDS011;50700;55.416;12.952;2022-09-13T00:10:17;3.38;;;2.20;;
64375;SDS011;50700;55.416;12.952;2022-09-13T00:12:43;2.63;;;2.13;;
64375;SDS011;50700;55.416;12.952;2022-09-13T00:15:09;2.28;;;2.08;;
64375;SDS011;50700;55.416;12.952;2022-09-13T00:17:36;2.97;;;2.13;;
64375;SDS011;50700;55.416;12.952;2022-09-13T00:20:02;2.67;;;2.10;;
64375;SDS011;50700;55.416;12.952;2022-09-13T00:22:29;2.85;;;2.63;;
64375;SDS011;50700;55.416;12.952;2022-09-13T00:24:55;8.23;;;2.38;;
64375;SDS011;50700;55.416;12.952;2022-09-13T00:27:21;2.60;;;2.10;;
64375;SDS011;50700;55.416;12.952;2022-09-13T00:29:47;3.67;;;2.55;;
64375;SDS011;50700;55.416;12.952;2022-09-13T00:32:13;3.97;;;2.20;;
64375;SDS011;50700;55.416;12.952;2022-09-13T00:34:40;2.53;;;2.33;;
64375;SDS011;50700;55.416;12.952;2022-09-13T00:37:06;4.72;;;2.50;;
64375;SDS011;50700;55.416;12.952;2022-09-13T00:39:33;3.28;;;2.60;;
64375;SDS011;50700;55.416;12.952;2022-09-13T00:41:59;3.63;;;2.38;;
64375;SDS011;50700;55.416;12.952;2022-09-13T00:47:10;5.18;;;2.50;;
64375;SDS011;50700;55.416;12.952;2022-09-13T00:49:39;3.28;;;2.30;;
64375;SDS011;50700;55.416;12.952;2022-09-13T00:52:07;4.70;;;3.03;;
64375;SDS011;50700;55.416;12.952;2022-09-13T00:54:36;3.58;;;2.50;;
64375;SDS011;50700;55.416;12.952;2022-09-13T00:57:04;2.78;;;2.30;;
64375;SDS011;50700;55.416;12.952;2022-09-13T00:59:34;3.22;;;2.30;;
64375;SDS011;50700;55.416;12.952;2022-09-13T01:02:02;3.05;;;2.10;;
64375;SDS011;50700;55.416;12.952;2022-09-13T01:04:29;2.35;;;2.15;;
64375;SDS011;50700;55.416;12.952;2022-09-13T01:06:58;4.60;;;3.15;;
64375;SDS011;50700;55.416;12.952;2022-09-13T01:09:25;3.92;;;2.10;;
64375;SDS011;50700;55.416;12.952;2022-09-13T01:11:54;3.08;;;2.15;;
64375;SDS011;50700;55.416;12.952;2022-09-13T01:14:28;4.45;;;2.22;;
64375;SDS011;50700;55.416;12.952;2022-09-13T01:16:55;2.78;;;2.47;;
64375;SDS011;50700;55.416;12.952;2022-09-13T01:19:21;2.80;;;2.50;;
64375;SDS011;50700;55.416;12.952;2022-09-13T01:24:25;3.33;;;2.47;;
64375;SDS011;50700;55.416;12.952;2022-09-13T01:27:07;2.60;;;2.40;;
64375;SDS011;50700;55.416;12.952;2022-09-13T01:35:12;4.38;;;2.78;;
64375;SDS011;50700;55.416;12.952;2022-09-13T01:43:13;3.00;;;2.70;;
64375;SDS011;50700;55.416;12.952;2022-09-13T01:45:47;8.52;;;3.65;;
64375;SDS011;50700;55.416;12.952;2022-09-13T01:48:20;4.28;;;2.75;;
64375;SDS011;50700;55.416;12.952;2022-09-13T01:55:50;3.63;;;3.30;;
64375;SDS011;50700;55.416;12.952;2022-09-13T01:58:34;4.80;;;3.47;;
64375;SDS011;50700;55.416;12.952;2022-09-13T02:03:36;6.70;;;3.70;;
64375;SDS011;50700;55.416;12.952;2022-09-13T02:06:07;4.95;;;3.30;;
64375;SDS011;50700;55.416;12.952;2022-09-13T02:08:54;5.00;;;3.60;;
64375;SDS011;50700;55.416;12.952;2022-09-13T02:11:21;9.82;;;3.83;;
64375;SDS011;50700;55.416;12.952;2022-09-13T02:16:19;7.15;;;4.35;;
64375;SDS011;50700;55.416;12.952;2022-09-13T02:18:48;8.45;;;4.10;;
64375;SDS011;50700;55.416;12.952;2022-09-13T02:21:17;4.90;;;3.88;;
64375;SDS011;50700;55.416;12.952;2022-09-13T02:24:06;5.60;;;3.58;;
64375;SDS011;50700;55.416;12.952;2022-09-13T02:26:31;6.22;;;4.38;;
64375;SDS011;50700;55.416;12.952;2022-09-13T02:29:00;6.40;;;4.03;;
64375;SDS011;50700;55.416;12.952;2022-09-13T02:31:32;7.70;;;4.30;;
64375;SDS011;50700;55.416;12.952;2022-09-13T02:34:11;6.68;;;4.05;;
64375;SDS011;50700;55.416;12.952;2022-09-13T02:36:40;7.20;;;4.03;;
64375;SDS011;50700;55.416;12.952;2022-09-13T02:39:17;7.38;;;4.32;;
64375;SDS011;50700;55.416;12.952;2022-09-13T02:44:12;4.85;;;4.10;;
64375;SDS011;50700;55.416;12.952;2022-09-13T02:46:45;7.00;;;4.85;;
64375;SDS011;50700;55.416;12.952;2022-09-13T02:51:54;6.93;;;4.38;;
64375;SDS011;50700;55.416;12.952;2022-09-13T02:54:24;7.07;;;4.37;;
64375;SDS011;50700;55.416;12.952;2022-09-13T02:57:00;7.90;;;4.57;;
64375;SDS011;50700;55.416;12.952;2022-09-13T02:59:27;7.47;;;4.27;;
64375;SDS011;50700;55.416;12.952;2022-09-13T03:01:56;9.32;;;4.10;;
64375;SDS011;50700;55.416;12.952;2022-09-13T03:04:24;5.60;;;3.80;;
64375;SDS011;50700;55.416;12.952;2022-09-13T03:06:50;4.68;;;4.03;;
64375;SDS011;50700;55.416;12.952;2022-09-13T03:09:16;4.60;;;3.90;;
64375;SDS011;50700;55.416;12.952;2022-09-13T03:32:25;5.13;;;3.65;;
64375;SDS011;50700;55.416;12.952;2022-09-13T03:40:45;6.75;;;4.07;;
64375;SDS011;50700;55.416;12.952;2022-09-13T03:45:40;9.13;;;4.75;;
64375;SDS011;50700;55.416;12.952;2022-09-13T03:48:07;10.27;;;4.97;;
64375;SDS011;50700;55.416;12.952;2022-09-13T03:50:35;8.40;;;4.63;;
64375;SDS011;50700;55.416;12.952;2022-09-13T03:53:03;10.30;;;5.05;;
64375;SDS011;50700;55.416;12.952;2022-09-13T03:55:31;6.40;;;5.00;;
64375;SDS011;50700;55.416;12.952;2022-09-13T03:57:58;6.30;;;5.05;;
64375;SDS011;50700;55.416;12.952;2022-09-13T04:00:24;7.32;;;4.20;;
64375;SDS011;50700;55.416;12.952;2022-09-13T04:02:50;6.25;;;4.43;;
64375;SDS011;50700;55.416;12.952;2022-09-13T04:05:16;5.97;;;4.70;;
64375;SDS011;50700;55.416;12.952;2022-09-13T04:07:42;6.65;;;5.03;;
64375;SDS011;50700;55.416;12.952;2022-09-13T04:10:09;6.65;;;4.20;;
64375;SDS011;50700;55.416;12.952;2022-09-13T04:12:36;8.80;;;5.35;;
64375;SDS011;50700;55.416;12.952;2022-09-13T04:15:03;8.18;;;5.38;;
64375;SDS011;50700;55.416;12.952;2022-09-13T04:17:29;5.80;;;4.90;;
64375;SDS011;50700;55.416;12.952;2022-09-13T04:19:55;8.45;;;5.88;;
64375;SDS011;50700;55.416;12.952;2022-09-13T04:22:21;9.13;;;5.35;;
64375;SDS011;50700;55.416;12.952;2022-09-13T04:24:47;6.78;;;4.90;;
64375;SDS011;50700;55.416;12.952;2022-09-13T04:27:13;9.27;;;5.18;;
64375;SDS011;50700;55.416;12.952;2022-09-13T04:29:39;7.07;;;5.55;;
64375;SDS011;50700;55.416;12.952;2022-09-13T04:32:06;10.50;;;5.65;;
64375;SDS011;50700;55.416;12.952;2022-09-13T04:34:33;7.47;;;5.43;;
64375;SDS011;50700;55.416;12.952;2022-09-13T04:36:59;8.75;;;5.85;;
64375;SDS011;50700;55.416;12.952;2022-09-13T04:39:25;10.07;;;6.10;;
64375;SDS011;50700;55.416;12.952;2022-09-13T04:41:51;8.85;;;5.35;;
64375;SDS011;50700;55.416;12.952;2022-09-13T04:44:18;15.82;;;6.40;;
64375;SDS011;50700;55.416;12.952;2022-09-13T04:46:46;8.50;;;6.03;;
64375;SDS011;50700;55.416;12.952;2022-09-13T04:49:13;9.63;;;6.05;;
64375;SDS011;50700;55.416;12.952;2022-09-13T04:51:39;12.60;;;6.05;;
64375;SDS011;50700;55.416;12.952;2022-09-13T04:54:07;8.18;;;6.13;;
64375;SDS011;50700;55.416;12.952;2022-09-13T04:56:34;11.82;;;6.90;;
64375;SDS011;50700;55.416;12.952;2022-09-13T04:59:00;9.55;;;5.97;;
64375;SDS011;50700;55.416;12.952;2022-09-13T05:01:26;9.88;;;6.55;;
64375;SDS011;50700;55.416;12.952;2022-09-13T05:03:52;12.43;;;6.72;;
64375;SDS011;50700;55.416;12.952;2022-09-13T05:06:19;7.75;;;6.05;;
64375;SDS011;50700;55.416;12.952;2022-09-13T05:08:53;9.57;;;6.00;;
64375;SDS011;50700;55.416;12.952;2022-09-13T05:11:24;9.73;;;5.97;;
64375;SDS011;50700;55.416;12.952;2022-09-13T05:13:51;10.10;;;6.25;;
64375;SDS011;50700;55.416;12.952;2022-09-13T05:16:19;9.18;;;6.43;;
64375;SDS011;50700;55.416;12.952;2022-09-13T05:18:45;11.18;;;6.65;;
64375;SDS011;50700;55.416;12.952;2022-09-13T05:21:11;9.80;;;6.05;;
64375;SDS011;50700;55.416;12.952;2022-09-13T05:23:37;7.57;;;5.97;;
64375;SDS011;50700;55.416;12.952;2022-09-13T05:26:04;11.82;;;5.95;;
64375;SDS011;50700;55.416;12.952;2022-09-13T05:28:31;9.77;;;6.47;;
64375;SDS011;50700;55.416;12.952;2022-09-13T05:31:02;10.13;;;6.28;;
64375;SDS011;50700;55.416;12.952;2022-09-13T05:33:30;12.57;;;6.15;;
64375;SDS011;50700;55.416;12.952;2022-09-13T05:35:56;8.43;;;6.05;;
64375;SDS011;50700;55.416;12.952;2022-09-13T05:38:23;10.73;;;6.63;;
64375;SDS011;50700;55.416;12.952;2022-09-13T05:40:53;9.45;;;6.90;;
64375;SDS011;50700;55.416;12.952;2022-09-13T05:43:21;10.48;;;6.65;;
64375;SDS011;50700;55.416;12.952;2022-09-13T05:45:48;9.25;;;6.40;;
64375;SDS011;50700;55.416;12.952;2022-09-13T05:48:14;9.02;;;5.78;;
64375;SDS011;50700;55.416;12.952;2022-09-13T05:50:40;10.38;;;6.35;;
64375;SDS011;50700;55.416;12.952;2022-09-13T05:53:06;8.13;;;5.63;;
64375;SDS011;50700;55.416;12.952;2022-09-13T05:55:32;9.07;;;6.10;;
64375;SDS011;50700;55.416;12.952;2022-09-13T05:58:02;13.90;;;7.05;;
64375;SDS011;50700;55.416;12.952;2022-09-13T06:00:29;12.07;;;6.82;;
64375;SDS011;50700;55.416;12.952;2022-09-13T06:02:56;7.93;;;6.03;;
64375;SDS011;50700;55.416;12.952;2022-09-13T06:05:22;7.20;;;5.97;;
64375;SDS011;50700;55.416;12.952;2022-09-13T06:07:49;11.88;;;5.40;;
64375;SDS011;50700;55.416;12.952;2022-09-13T06:10:15;21.17;;;6.22;;
64375;SDS011;50700;55.416;12.952;2022-09-13T06:12:41;8.48;;;5.82;;
64375;SDS011;50700;55.416;12.952;2022-09-13T06:15:08;7.93;;;5.30;;
64375;SDS011;50700;55.416;12.952;2022-09-13T06:17:35;8.60;;;5.60;;
64375;SDS011;50700;55.416;12.952;2022-09-13T06:20:02;7.82;;;5.80;;
64375;SDS011;50700;55.416;12.952;2022-09-13T06:22:28;7.82;;;5.82;;
64375;SDS011;50700;55.416;12.952;2022-09-13T06:25:00;9.02;;;5.78;;
64375;SDS011;50700;55.416;12.952;2022-09-13T06:27:27;8.15;;;5.80;;
64375;SDS011;50700;55.416;12.952;2022-09-13T06:29:55;10.65;;;6.20;;
64375;SDS011;50700;55.416;12.952;2022-09-13T06:32:21;9.85;;;6.20;;
64375;SDS011;50700;55.416;12.952;2022-09-13T06:34:47;11.38;;;6.68;;
64375;SDS011;50700;55.416;12.952;2022-09-13T06:37:14;10.68;;;6.70;;
64375;SDS011;50700;55.416;12.952;2022-09-13T06:39:40;12.40;;;7.13;;
64375;SDS011;50700;55.416;12.952;2022-09-13T06:42:06;11.98;;;6.40;;
64375;SDS011;50700;55.416;12.952;2022-09-13T06:44:32;9.98;;;6.45;;
64375;SDS011;50700;55.416;12.952;2022-09-13T06:46:58;9.75;;;5.90;;
64375;SDS011;50700;55.416;12.952;2022-09-13T06:49:25;12.23;;;6.85;;
64375;SDS011;50700;55.416;12.952;2022-09-13T06:51:53;12.00;;;6.88;;
64375;SDS011;50700;55.416;12.952;2022-09-13T06:54:19;14.18;;;7.20;;
64375;SDS011;50700;55.416;12.952;2022-09-13T06:56:45;11.70;;;6.65;;
64375;SDS011;50700;55.416;12.952;2022-09-13T06:59:11;9.80;;;6.40;;
64375;SDS011;50700;55.416;12.952;2022-09-13T07:01:39;10.77;;;7.30;;
64375;SDS011;50700;55.416;12.952;2022-09-13T07:04:09;10.25;;;6.95;;
64375;SDS011;50700;55.416;12.952;2022-09-13T07:06:37;11.95;;;6.95;;
64375;SDS011;50700;55.416;12.952;2022-09-13T07:09:04;11.15;;;6.45;;
64375;SDS011;50700;55.416;12.952;2022-09-13T07:11:32;13.30;;;7.22;;
64375;SDS011;50700;55.416;12.952;2022-09-13T07:13:59;14.27;;;6.47;;
64375;SDS011;50700;55.416;12.952;2022-09-13T07:16:26;10.45;;;5.97;;
64375;SDS011;50700;55.416;12.952;2022-09-13T07:18:54;11.40;;;6.40;;
64375;SDS011;50700;55.416;12.952;2022-09-13T07:21:20;10.85;;;5.78;;
64375;SDS011;50700;55.416;12.952;2022-09-13T07:23:47;10.23;;;6.60;;
64375;SDS011;50700;55.416;12.952;2022-09-13T07:26:13;8.27;;;5.78;;
64375;SDS011;50700;55.416;12.952;2022-09-13T07:28:41;9.38;;;6.13;;
64375;SDS011;50700;55.416;12.952;2022-09-13T07:31:08;7.43;;;4.90;;
64375;SDS011;50700;55.416;12.952;2022-09-13T07:33:35;6.05;;;4.60;;
64375;SDS011;50700;55.416;12.952;2022-09-13T07:36:02;9.02;;;4.97;;
64375;SDS011;50700;55.416;12.952;2022-09-13T07:38:40;6.80;;;4.10;;
64375;SDS011;50700;55.416;12.952;2022-09-13T07:41:11;11.45;;;4.25;;
64375;SDS011;50700;55.416;12.952;2022-09-13T07:43:38;6.32;;;4.20;;
64375;SDS011;50700;55.416;12.952;2022-09-13T07:46:08;7.35;;;5.25;;
64375;SDS011;50700;55.416;12.952;2022-09-13T07:48:35;8.18;;;3.45;;
64375;SDS011;50700;55.416;12.952;2022-09-13T07:51:03;8.18;;;3.75;;
64375;SDS011;50700;55.416;12.952;2022-09-13T07:53:30;4.88;;;3.58;;
64375;SDS011;50700;55.416;12.952;2022-09-13T07:56:04;8.48;;;3.30;;
64375;SDS011;50700;55.416;12.952;2022-09-13T07:58:31;8.25;;;3.55;;
64375;SDS011;50700;55.416;12.952;2022-09-13T08:01:40;4.43;;;3.17;;
64375;SDS011;50700;55.416;12.952;2022-09-13T08:03:51;4.25;;;2.15;;
64375;SDS011;50700;55.416;12.952;2022-09-13T08:06:18;4.60;;;2.42;;
64375;SDS011;50700;55.416;12.952;2022-09-13T08:08:44;2.03;;;1.70;;
64375;SDS011;50700;55.416;12.952;2022-09-13T08:11:14;2.75;;;1.90;;
64375;SDS011;50700;55.416;12.952;2022-09-13T08:13:41;8.07;;;2.15;;
64375;SDS011;50700;55.416;12.952;2022-09-13T08:16:07;3.72;;;1.73;;
64375;SDS011;50700;55.416;12.952;2022-09-13T08:18:33;4.35;;;2.10;;
64375;SDS011;50700;55.416;12.952;2022-09-13T08:20:59;2.78;;;1.27;;
64375;SDS011;50700;55.416;12.952;2022-09-13T08:23:26;4.18;;;1.73;;
64375;SDS011;50700;55.416;12.952;2022-09-13T08:25:53;6.22;;;1.33;;
64375;SDS011;50700;55.416;12.952;2022-09-13T08:28:20;5.82;;;1.63;;
64375;SDS011;50700;55.416;12.952;2022-09-13T08:30:46;5.35;;;1.42;;
64375;SDS011;50700;55.416;12.952;2022-09-13T08:33:13;3.22;;;1.48;;
64375;SDS011;50700;55.416;12.952;2022-09-13T08:35:39;3.50;;;1.30;;
64375;SDS011;50700;55.416;12.952;2022-09-13T08:38:06;2.78;;;1.20;;
64375;SDS011;50700;55.416;12.952;2022-09-13T08:40:42;2.42;;;1.20;;
64375;SDS011;50700;55.416;12.952;2022-09-13T08:45:55;6.88;;;1.48;;
64375;SDS011;50700;55.416;12.952;2022-09-13T08:48:24;2.75;;;1.13;;
64375;SDS011;50700;55.416;12.952;2022-09-13T08:50:56;6.25;;;1.27;;
64375;SDS011;50700;55.416;12.952;2022-09-13T08:55:53;3.28;;;1.58;;
64375;SDS011;50700;55.416;12.952;2022-09-13T08:58:57;6.28;;;1.35;;
64375;SDS011;50700;55.416;12.952;2022-09-13T09:01:18;2.63;;;1.00;;
64375;SDS011;50700;55.416;12.952;2022-09-13T09:06:41;5.15;;;1.33;;
64375;SDS011;50700;55.416;12.952;2022-09-13T09:09:12;3.58;;;1.30;;
64375;SDS011;50700;55.416;12.952;2022-09-13T09:17:18;4.40;;;1.05;;
64375;SDS011;50700;55.416;12.952;2022-09-13T09:19:44;4.35;;;1.20;;
64375;SDS011;50700;55.416;12.952;2022-09-13T09:22:21;2.20;;;0.85;;
64375;SDS011;50700;55.416;12.952;2022-09-13T09:24:53;3.22;;;1.42;;
64375;SDS011;50700;55.416;12.952;2022-09-13T09:27:20;5.85;;;0.82;;
64375;SDS011;50700;55.416;12.952;2022-09-13T09:29:47;4.57;;;0.70;;
64375;SDS011;50700;55.416;12.952;2022-09-13T09:33:16;4.22;;;1.05;;
64375;SDS011;50700;55.416;12.952;2022-09-13T09:37:40;2.47;;;0.80;;
64375;SDS011;50700;55.416;12.952;2022-09-13T09:40:11;1.60;;;0.70;;
64375;SDS011;50700;55.416;12.952;2022-09-13T09:42:40;1.88;;;0.70;;
64375;SDS011;50700;55.416;12.952;2022-09-13T09:45:26;2.42;;;0.85;;
64375;SDS011;50700;55.416;12.952;2022-09-13T09:47:53;3.20;;;0.90;;
64375;SDS011;50700;55.416;12.952;2022-09-13T09:50:21;3.25;;;0.73;;
64375;SDS011;50700;55.416;12.952;2022-09-13T09:55:41;3.33;;;1.40;;
64375;SDS011;50700;55.416;12.952;2022-09-13T09:58:10;6.40;;;1.77;;
64375;SDS011;50700;55.416;12.952;2022-09-13T10:00:48;4.72;;;0.60;;
64375;SDS011;50700;55.416;12.952;2022-09-13T10:03:19;2.47;;;0.73;;
64375;SDS011;50700;55.416;12.952;2022-09-13T10:05:46;3.97;;;0.60;;
64375;SDS011;50700;55.416;12.952;2022-09-13T10:08:29;3.50;;;1.00;;
64375;SDS011;50700;55.416;12.952;2022-09-13T10:10:56;2.58;;;1.10;;
64375;SDS011;50700;55.416;12.952;2022-09-13T10:13:26;6.47;;;0.82;;
64375;SDS011;50700;55.416;12.952;2022-09-13T10:15:53;2.78;;;0.68;;
64375;SDS011;50700;55.416;12.952;2022-09-13T10:18:21;6.00;;;1.27;;
64375;SDS011;50700;55.416;12.952;2022-09-13T10:21:09;5.65;;;0.70;;
64375;SDS011;50700;55.416;12.952;2022-09-13T10:23:36;9.63;;;1.30;;
64375;SDS011;50700;55.416;12.952;2022-09-13T10:26:11;3.15;;;0.73;;
64375;SDS011;50700;55.416;12.952;2022-09-13T10:28:45;10.95;;;3.10;;
64375;SDS011;50700;55.416;12.952;2022-09-13T10:31:15;4.65;;;1.08;;
64375;SDS011;50700;55.416;12.952;2022-09-13T10:36:15;3.95;;;0.93;;
64375;SDS011;50700;55.416;12.952;2022-09-13T10:38:56;1.20;;;0.70;;
64375;SDS011;50700;55.416;12.952;2022-09-13T10:41:24;5.80;;;0.68;;
64375;SDS011;50700;55.416;12.952;2022-09-13T10:43:58;4.25;;;1.00;;
64375;SDS011;50700;55.416;12.952;2022-09-13T10:48:50;1.90;;;0.90;;
64375;SDS011;50700;55.416;12.952;2022-09-13T10:51:27;1.48;;;0.82;;
64375;SDS011;50700;55.416;12.952;2022-09-13T10:56:33;5.75;;;0.80;;
64375;SDS011;50700;55.416;12.952;2022-09-13T11:10:41;4.85;;;0.98;;
64375;SDS011;50700;55.416;12.952;2022-09-13T11:21:08;3.23;;;1.00;;
64375;SDS011;50700;55.416;12.952;2022-09-13T11:26:21;6.57;;;0.93;;
64375;SDS011;50700;55.416;12.952;2022-09-13T11:34:07;4.83;;;1.03;;
64375;SDS011;50700;55.416;12.952;2022-09-13T11:36:49;3.67;;;0.80;;
64375;SDS011;50700;55.416;12.952;2022-09-13T11:39:24;5.25;;;0.82;;
64375;SDS011;50700;55.416;12.952;2022-09-13T11:42:08;3.97;;;1.00;;
64375;SDS011;50700;55.416;12.952;2022-09-13T11:45:39;3.67;;;1.00;;
64375;SDS011;50700;55.416;12.952;2022-09-13T11:47:39;4.32;;;0.80;;
64375;SDS011;50700;55.416;12.952;2022-09-13T11:55:21;2.67;;;0.85;;
64375;SDS011;50700;55.416;12.952;2022-09-13T11:57:54;4.88;;;0.85;;
64375;SDS011;50700;55.416;12.952;2022-09-13T12:00:23;4.33;;;0.80;;
64375;SDS011;50700;55.416;12.952;2022-09-13T12:05:33;2.17;;;0.93;;
64375;SDS011;50700;55.416;12.952;2022-09-13T12:08:23;3.15;;;0.88;;
64375;SDS011;50700;55.416;12.952;2022-09-13T12:10:52;2.38;;;0.95;;
64375;SDS011;50700;55.416;12.952;2022-09-13T12:13:24;5.57;;;0.82;;
64375;SDS011;50700;55.416;12.952;2022-09-13T12:15:55;5.97;;;1.15;;
64375;SDS011;50700;55.416;12.952;2022-09-13T12:18:24;2.60;;;0.57;;
64375;SDS011;50700;55.416;12.952;2022-09-13T12:20:52;3.10;;;1.40;;
64375;SDS011;50700;55.416;12.952;2022-09-13T12:23:21;0.55;;;0.55;;
64375;SDS011;50700;55.416;12.952;2022-09-13T12:30:44;4.10;;;1.10;;
64375;SDS011;50700;55.416;12.952;2022-09-13T12:33:13;4.63;;;0.85;;
64375;SDS011;50700;55.416;12.952;2022-09-13T12:35:53;4.00;;;1.08;;
64375;SDS011;50700;55.416;12.952;2022-09-13T12:43:25;4.82;;;1.10;;
64375;SDS011;50700;55.416;12.952;2022-09-13T12:51:11;3.75;;;0.82;;
64375;SDS011;50700;55.416;12.952;2022-09-13T13:01:43;4.10;;;1.40;;
64375;SDS011;50700;55.416;12.952;2022-09-13T13:04:28;2.67;;;0.82;;
64375;SDS011;50700;55.416;12.952;2022-09-13T13:06:57;1.75;;;0.60;;
64375;SDS011;50700;55.416;12.952;2022-09-13T13:09:27;5.25;;;0.98;;
64375;SDS011;50700;55.416;12.952;2022-09-13T13:11:55;6.20;;;1.30;;
64375;SDS011;50700;55.416;12.952;2022-09-13T13:17:38;9.02;;;2.03;;
64375;SDS011;50700;55.416;12.952;2022-09-13T13:19:56;4.97;;;1.13;;
64375;SDS011;50700;55.416;12.952;2022-09-13T13:27:52;5.30;;;1.10;;
64375;SDS011;50700;55.416;12.952;2022-09-13T13:30:53;5.70;;;0.75;;
64375;SDS011;50700;55.416;12.952;2022-09-13T13:35:38;7.70;;;1.20;;
64375;SDS011;50700;55.416;12.952;2022-09-13T13:40:49;5.88;;;1.17;;
64375;SDS011;50700;55.416;12.952;2022-09-13T13:43:30;3.47;;;1.00;;
64375;SDS011;50700;55.416;12.952;2022-09-13T13:45:57;6.13;;;1.20;;
64375;SDS011;50700;55.416;12.952;2022-09-13T13:48:34;2.92;;;0.82;;
64375;SDS011;50700;55.416;12.952;2022-09-13T13:51:11;9.23;;;1.00;;
64375;SDS011;50700;55.416;12.952;2022-09-13T13:53:40;4.93;;;1.00;;
64375;SDS011;50700;55.416;12.952;2022-09-13T13:56:52;5.38;;;1.23;;
64375;SDS011;50700;55.416;12.952;2022-09-13T13:58:54;4.10;;;1.10;;
64375;SDS011;50700;55.416;12.952;2022-09-13T14:01:23;2.55;;;1.10;;
64375;SDS011;50700;55.416;12.952;2022-09-13T14:07:02;6.47;;;1.25;;
64375;SDS011;50700;55.416;12.952;2022-09-13T14:09:37;11.10;;;1.02;;
64375;SDS011;50700;55.416;12.952;2022-09-13T14:12:09;2.72;;;1.00;;
64375;SDS011;50700;55.416;12.952;2022-09-13T14:20:08;3.60;;;0.95;;
64375;SDS011;50700;55.416;12.952;2022-09-13T14:22:35;2.63;;;0.77;;
64375;SDS011;50700;55.416;12.952;2022-09-13T14:27:43;4.53;;;0.90;;
64375;SDS011;50700;55.416;12.952;2022-09-13T14:32:47;1.70;;;0.75;;
64375;SDS011;50700;55.416;12.952;2022-09-13T14:35:24;2.92;;;0.90;;
64375;SDS011;50700;55.416;12.952;2022-09-13T14:37:51;2.10;;;0.90;;
64375;SDS011;50700;55.416;12.952;2022-09-13T14:40:18;4.75;;;1.35;;
64375;SDS011;50700;55.416;12.952;2022-09-13T14:42:48;5.80;;;1.08;;
64375;SDS011;50700;55.416;12.952;2022-09-13T14:45:28;4.40;;;1.38;;
64375;SDS011;50700;55.416;12.952;2022-09-13T14:47:57;2.30;;;0.98;;
64375;SDS011;50700;55.416;12.952;2022-09-13T14:50:28;3.08;;;0.80;;
64375;SDS011;50700;55.416;12.952;2022-09-13T14:52:57;4.80;;;0.82;;
64375;SDS011;50700;55.416;12.952;2022-09-13T14:55:25;4.88;;;0.90;;
64375;SDS011;50700;55.416;12.952;2022-09-13T14:57:54;4.22;;;1.08;;
64375;SDS011;50700;55.416;12.952;2022-09-13T15:00:22;3.38;;;1.40;;
64375;SDS011;50700;55.416;12.952;2022-09-13T15:05:16;4.53;;;0.85;;
64375;SDS011;50700;55.416;12.952;2022-09-13T15:07:43;2.05;;;0.95;;
64375;SDS011;50700;55.416;12.952;2022-09-13T15:13:01;2.35;;;0.70;;
64375;SDS011;50700;55.416;12.952;2022-09-13T15:20:24;11.00;;;2.17;;
64375;SDS011;50700;55.416;12.952;2022-09-13T15:22:50;4.75;;;1.20;;
64375;SDS011;50700;55.416;12.952;2022-09-13T15:25:22;5.28;;;1.10;;
64375;SDS011;50700;55.416;12.952;2022-09-13T15:27:49;3.90;;;0.88;;
64375;SDS011;50700;55.416;12.952;2022-09-13T15:30:20;2.60;;;1.52;;
64375;SDS011;50700;55.416;12.952;2022-09-13T15:32:46;2.78;;;1.33;;
64375;SDS011;50700;55.416;12.952;2022-09-13T15:37:57;6.10;;;1.35;;
64375;SDS011;50700;55.416;12.952;2022-09-13T15:40:23;6.10;;;1.00;;
64375;SDS011;50700;55.416;12.952;2022-09-13T15:42:50;3.30;;;0.80;;
64375;SDS011;50700;55.416;12.952;2022-09-13T15:45:17;3.22;;;1.00;;
64375;SDS011;50700;55.416;12.952;2022-09-13T15:47:44;3.83;;;1.08;;
64375;SDS011;50700;55.416;12.952;2022-09-13T15:50:44;3.03;;;0.82;;
64375;SDS011;50700;55.416;12.952;2022-09-13T15:53:08;4.07;;;0.90;;
64375;SDS011;50700;55.416;12.952;2022-09-13T15:55:35;2.55;;;0.73;;
64375;SDS011;50700;55.416;12.952;2022-09-13T15:58:04;3.97;;;1.13;;
64375;SDS011;50700;55.416;12.952;2022-09-13T16:00:30;2.65;;;1.15;;
64375;SDS011;50700;55.416;12.952;2022-09-13T16:02:56;4.50;;;1.00;;
64375;SDS011;50700;55.416;12.952;2022-09-13T16:05:24;5.32;;;0.75;;
64375;SDS011;50700;55.416;12.952;2022-09-13T16:07:50;1.73;;;0.70;;
64375;SDS011;50700;55.416;12.952;2022-09-13T16:10:19;3.13;;;1.45;;
64375;SDS011;50700;55.416;12.952;2022-09-13T16:12:46;9.98;;;1.60;;
64375;SDS011;50700;55.416;12.952;2022-09-13T16:15:12;3.75;;;0.95;;
64375;SDS011;50700;55.416;12.952;2022-09-13T16:17:39;5.18;;;1.30;;
64375;SDS011;50700;55.416;12.952;2022-09-13T16:20:06;5.70;;;1.08;;
64375;SDS011;50700;55.416;12.952;2022-09-13T16:22:33;6.15;;;1.05;;
64375;SDS011;50700;55.416;12.952;2022-09-13T16:25:01;3.28;;;0.77;;
64375;SDS011;50700;55.416;12.952;2022-09-13T16:27:27;1.13;;;0.73;;
64375;SDS011;50700;55.416;12.952;2022-09-13T16:29:53;4.72;;;0.90;;
64375;SDS011;50700;55.416;12.952;2022-09-13T16:32:19;4.55;;;0.82;;
64375;SDS011;50700;55.416;12.952;2022-09-13T16:34:45;2.28;;;0.55;;
64375;SDS011;50700;55.416;12.952;2022-09-13T16:37:12;3.80;;;1.20;;
64375;SDS011;50700;55.416;12.952;2022-09-13T16:39:40;2.35;;;0.60;;
64375;SDS011;50700;55.416;12.952;2022-09-13T16:42:06;1.65;;;0.60;;
64375;SDS011;50700;55.416;12.952;2022-09-13T16:44:32;0.93;;;0.50;;
64375;SDS011;50700;55.416;12.952;2022-09-13T16:46:58;0.63;;;0.50;;
64375;SDS011;50700;55.416;12.952;2022-09-13T16:49:24;1.58;;;0.50;;
64375;SDS011;50700;55.416;12.952;2022-09-13T16:51:51;2.28;;;0.90;;
64375;SDS011;50700;55.416;12.952;2022-09-13T16:54:17;3.17;;;1.00;;
64375;SDS011;50700;55.416;12.952;2022-09-13T16:56:43;5.68;;;0.75;;
64375;SDS011;50700;55.416;12.952;2022-09-13T16:59:10;3.08;;;0.73;;
64375;SDS011;50700;55.416;12.952;2022-09-13T17:01:36;2.40;;;0.98;;
64375;SDS011;50700;55.416;12.952;2022-09-13T17:04:02;1.10;;;0.73;;
64375;SDS011;50700;55.416;12.952;2022-09-13T17:06:28;0.98;;;0.80;;
64375;SDS011;50700;55.416;12.952;2022-09-13T17:08:58;2.70;;;0.80;;
64375;SDS011;50700;55.416;12.952;2022-09-13T17:11:26;1.80;;;0.68;;
64375;SDS011;50700;55.416;12.952;2022-09-13T17:13:52;2.38;;;0.85;;
64375;SDS011;50700;55.416;12.952;2022-09-13T17:18:45;3.85;;;0.93;;
64375;SDS011;50700;55.416;12.952;2022-09-13T17:21:11;1.42;;;0.60;;
64375;SDS011;50700;55.416;12.952;2022-09-13T17:23:37;2.15;;;0.50;;
64375;SDS011;50700;55.416;12.952;2022-09-13T17:26:04;3.08;;;0.60;;
64375;SDS011;50700;55.416;12.952;2022-09-13T17:28:30;4.57;;;0.90;;
64375;SDS011;50700;55.416;12.952;2022-09-13T17:30:56;4.63;;;1.20;;
64375;SDS011;50700;55.416;12.952;2022-09-13T17:33:22;3.28;;;0.90;;
64375;SDS011;50700;55.416;12.952;2022-09-13T17:35:56;1.38;;;0.77;;
64375;SDS011;50700;55.416;12.952;2022-09-13T17:38:23;2.42;;;0.85;;
64375;SDS011;50700;55.416;12.952;2022-09-13T17:40:59;1.35;;;1.00;;
64375;SDS011;50700;55.416;12.952;2022-09-13T17:43:26;4.88;;;1.00;;
64375;SDS011;50700;55.416;12.952;2022-09-13T17:45:52;6.75;;;0.95;;
64375;SDS011;50700;55.416;12.952;2022-09-13T17:48:19;3.45;;;1.25;;
64375;SDS011;50700;55.416;12.952;2022-09-13T17:50:45;3.08;;;0.73;;
64375;SDS011;50700;55.416;12.952;2022-09-13T17:53:11;3.70;;;0.95;;